TOM89A EGCC-EGKK
Flight info
| Callsign | TOM89A |
|---|---|
| Flight time | 0h 46m |
| Altitude | 19000 |
| Route | LISTO L612 HON N859 KIDLI |
| Aircraft | B38M/M-SDE1FGHILORVWXY/HB1 |
Departure
| Time | 2026-05-04 10:19 |
|---|---|
| Airport | Manchester Airport (EGCC) |
Arrival
| Time | 2026-05-04 11:05 |
|---|---|
| Airport | London Gatwick Airport (EGKK) |
| Time | Latitude | Longitude | Altitude | Speed | Heading |
|---|---|---|---|---|---|
| 2026-05-04 09:38 | 53.36856 | -2.28613 | 252 ft | 0 kts | 314° |
| 2026-05-04 10:04 | 53.36856 | -2.28612 | 252 ft | 1 kts | 314° |
| 2026-05-04 10:04 | 53.36839 | -2.28584 | 252 ft | 4 kts | 314° |
| 2026-05-04 10:04 | 53.36821 | -2.28552 | 251 ft | 4 kts | 314° |
| 2026-05-04 10:04 | 53.36802 | -2.28521 | 251 ft | 4 kts | 300° |
| 2026-05-04 10:05 | 53.36802 | -2.28491 | 251 ft | 4 kts | 226° |
| 2026-05-04 10:05 | 53.36817 | -2.28467 | 251 ft | 4 kts | 224° |
| 2026-05-04 10:05 | 53.36834 | -2.28440 | 251 ft | 1 kts | 224° |
| 2026-05-04 10:10 | 53.36827 | -2.28451 | 251 ft | 3 kts | 224° |
| 2026-05-04 10:10 | 53.36800 | -2.28496 | 251 ft | 8 kts | 225° |
| 2026-05-04 10:10 | 53.36755 | -2.28571 | 252 ft | 10 kts | 224° |
| 2026-05-04 10:10 | 53.36705 | -2.28654 | 253 ft | 10 kts | 224° |
| 2026-05-04 10:11 | 53.36652 | -2.28740 | 254 ft | 11 kts | 225° |
| 2026-05-04 10:11 | 53.36589 | -2.28763 | 254 ft | 10 kts | 151° |
| 2026-05-04 10:11 | 53.36546 | -2.28672 | 254 ft | 10 kts | 137° |
| 2026-05-04 10:11 | 53.36482 | -2.28587 | 254 ft | 13 kts | 139° |
| 2026-05-04 10:12 | 53.36410 | -2.28472 | 254 ft | 15 kts | 141° |
| 2026-05-04 10:12 | 53.36318 | -2.28386 | 253 ft | 14 kts | 137° |
| 2026-05-04 10:12 | 53.36245 | -2.28285 | 253 ft | 13 kts | 136° |
| 2026-05-04 10:12 | 53.36176 | -2.28175 | 253 ft | 14 kts | 136° |
| 2026-05-04 10:13 | 53.36106 | -2.28059 | 252 ft | 14 kts | 135° |
| 2026-05-04 10:13 | 53.36036 | -2.27938 | 251 ft | 15 kts | 134° |
| 2026-05-04 10:13 | 53.35950 | -2.27869 | 251 ft | 13 kts | 167° |
| 2026-05-04 10:13 | 53.35858 | -2.27857 | 251 ft | 13 kts | 186° |
| 2026-05-04 10:14 | 53.35768 | -2.27871 | 251 ft | 13 kts | 186° |
| 2026-05-04 10:14 | 53.35677 | -2.27888 | 252 ft | 14 kts | 186° |
| 2026-05-04 10:16 | 53.35086 | -2.28603 | 260 ft | 16 kts | 231° |
| 2026-05-04 10:16 | 53.35013 | -2.28744 | 261 ft | 15 kts | 227° |
| 2026-05-04 10:16 | 53.34939 | -2.28874 | 263 ft | 15 kts | 226° |
| 2026-05-04 10:16 | 53.34867 | -2.29000 | 264 ft | 15 kts | 227° |
| 2026-05-04 10:17 | 53.34800 | -2.29130 | 266 ft | 15 kts | 230° |
| 2026-05-04 10:17 | 53.34734 | -2.29261 | 267 ft | 14 kts | 230° |
| 2026-05-04 10:19 | 53.35997 | -2.26269 | 491 ft | 177 kts | 50° |
| 2026-05-04 10:19 | 53.36797 | -2.24682 | 1008 ft | 185 kts | 51° |
| 2026-05-04 10:19 | 53.37517 | -2.22846 | 1523 ft | 197 kts | 72° |
| 2026-05-04 10:19 | 53.37495 | -2.20536 | 2053 ft | 198 kts | 110° |
| 2026-05-04 10:20 | 53.36707 | -2.18841 | 2551 ft | 181 kts | 141° |
| 2026-05-04 10:20 | 53.35712 | -2.17556 | 2824 ft | 189 kts | 147° |
| 2026-05-04 10:20 | 53.34467 | -2.16645 | 2885 ft | 203 kts | 175° |
| 2026-05-04 10:20 | 53.33158 | -2.16847 | 3636 ft | 178 kts | 187° |
| 2026-05-04 10:21 | 53.32002 | -2.17100 | 4332 ft | 157 kts | 185° |
| 2026-05-04 10:21 | 53.30924 | -2.17286 | 4787 ft | 153 kts | 184° |
| 2026-05-04 10:21 | 53.29898 | -2.17448 | 5217 ft | 145 kts | 184° |
| 2026-05-04 10:21 | 53.28857 | -2.17613 | 5442 ft | 153 kts | 184° |
| 2026-05-04 10:22 | 53.26674 | -2.17957 | 5976 ft | 163 kts | 185° |
| 2026-05-04 10:22 | 53.25526 | -2.18139 | 6259 ft | 168 kts | 185° |
| 2026-05-04 10:22 | 53.24349 | -2.18325 | 6540 ft | 172 kts | 185° |
| 2026-05-04 10:23 | 53.23144 | -2.18515 | 6804 ft | 175 kts | 185° |
| 2026-05-04 10:23 | 53.21916 | -2.18709 | 7073 ft | 179 kts | 186° |
| 2026-05-04 10:25 | 53.12919 | -2.18951 | 8938 ft | 194 kts | 158° |
| 2026-05-04 10:25 | 53.11670 | -2.18065 | 9210 ft | 196 kts | 158° |
| 2026-05-04 10:25 | 53.10410 | -2.17184 | 9481 ft | 197 kts | 159° |
| 2026-05-04 10:25 | 53.09139 | -2.16305 | 9753 ft | 198 kts | 159° |
| 2026-05-04 10:26 | 53.07863 | -2.15423 | 10017 ft | 199 kts | 159° |
| 2026-05-04 10:26 | 53.06592 | -2.14544 | 10344 ft | 196 kts | 159° |
| 2026-05-04 10:26 | 53.05354 | -2.13688 | 10694 ft | 190 kts | 159° |
| 2026-05-04 10:26 | 53.04148 | -2.12855 | 11036 ft | 185 kts | 159° |
| 2026-05-04 10:27 | 53.02975 | -2.12046 | 11397 ft | 180 kts | 159° |
| 2026-05-04 10:27 | 53.01872 | -2.11285 | 11722 ft | 175 kts | 159° |
| 2026-05-04 10:27 | 53.00769 | -2.10524 | 12070 ft | 169 kts | 159° |
| 2026-05-04 10:27 | 52.99722 | -2.09802 | 12410 ft | 161 kts | 159° |
| 2026-05-04 10:28 | 52.98715 | -2.09108 | 12721 ft | 154 kts | 159° |
| 2026-05-04 10:28 | 52.97729 | -2.08430 | 12929 ft | 152 kts | 160° |
| 2026-05-04 10:28 | 52.96760 | -2.07764 | 13152 ft | 150 kts | 159° |
| 2026-05-04 10:28 | 52.95791 | -2.07097 | 13395 ft | 151 kts | 159° |
| 2026-05-04 10:29 | 52.94815 | -2.06426 | 13602 ft | 155 kts | 159° |
| 2026-05-04 10:29 | 52.93786 | -2.05721 | 13736 ft | 166 kts | 159° |
| 2026-05-04 10:29 | 52.92682 | -2.04963 | 13893 ft | 177 kts | 159° |
| 2026-05-04 10:29 | 52.91506 | -2.04157 | 14065 ft | 189 kts | 159° |
| 2026-05-04 10:30 | 52.90252 | -2.03298 | 14241 ft | 201 kts | 159° |
| 2026-05-04 10:30 | 52.88941 | -2.02400 | 14423 ft | 212 kts | 159° |
| 2026-05-04 10:30 | 52.87545 | -2.01443 | 14611 ft | 222 kts | 160° |
| 2026-05-04 10:30 | 52.86082 | -2.00442 | 14790 ft | 233 kts | 160° |
| 2026-05-04 10:31 | 52.84556 | -1.99400 | 14969 ft | 241 kts | 159° |
| 2026-05-04 10:31 | 52.82975 | -1.98315 | 15133 ft | 249 kts | 160° |
| 2026-05-04 10:32 | 52.72976 | -1.91502 | 16792 ft | 302 kts | 159° |
| 2026-05-04 10:33 | 52.71020 | -1.90172 | 17477 ft | 306 kts | 159° |
| 2026-05-04 10:33 | 52.69035 | -1.88825 | 18158 ft | 310 kts | 159° |
| 2026-05-04 10:33 | 52.67007 | -1.87452 | 18600 ft | 321 kts | 159° |
| 2026-05-04 10:33 | 52.64993 | -1.85772 | 18869 ft | 335 kts | 160° |
| 2026-05-04 10:34 | 52.62697 | -1.84818 | 19053 ft | 350 kts | 174° |
| 2026-05-04 10:34 | 52.60195 | -1.84726 | 19072 ft | 371 kts | 185° |
| 2026-05-04 10:34 | 52.57548 | -1.85162 | 19070 ft | 393 kts | 188° |
| 2026-05-04 10:34 | 52.54764 | -1.85813 | 19072 ft | 415 kts | 189° |
| 2026-05-04 10:35 | 52.51825 | -1.86574 | 19073 ft | 437 kts | 190° |
| 2026-05-04 10:35 | 52.48746 | -1.87403 | 19068 ft | 458 kts | 190° |
| 2026-05-04 10:35 | 52.45537 | -1.88283 | 19060 ft | 472 kts | 190° |
| 2026-05-04 10:35 | 52.42356 | -1.89162 | 19051 ft | 452 kts | 190° |
| 2026-05-04 10:36 | 52.39373 | -1.89984 | 19046 ft | 427 kts | 190° |
| 2026-05-04 10:36 | 52.36519 | -1.90769 | 19027 ft | 404 kts | 190° |
| 2026-05-04 10:36 | 52.33813 | -1.91512 | 19030 ft | 383 kts | 190° |
| 2026-05-04 10:36 | 52.31246 | -1.92213 | 19026 ft | 365 kts | 190° |
| 2026-05-04 10:37 | 52.28766 | -1.92797 | 19034 ft | 360 kts | 181° |
| 2026-05-04 10:37 | 52.26313 | -1.91975 | 19055 ft | 370 kts | 155° |
| 2026-05-04 10:37 | 52.24159 | -1.89464 | 19053 ft | 392 kts | 139° |
| 2026-05-04 10:37 | 52.22204 | -1.86218 | 19061 ft | 409 kts | 135° |
| 2026-05-04 10:39 | 52.08537 | -1.69676 | 19045 ft | 411 kts | 147° |
| 2026-05-04 10:39 | 52.06198 | -1.67008 | 19043 ft | 411 kts | 147° |
| 2026-05-04 10:39 | 52.03828 | -1.64435 | 19048 ft | 411 kts | 148° |
| 2026-05-04 10:40 | 52.01416 | -1.61930 | 19041 ft | 411 kts | 149° |
| 2026-05-04 10:40 | 51.99021 | -1.59403 | 19045 ft | 408 kts | 148° |
| 2026-05-04 10:40 | 51.96704 | -1.56895 | 19031 ft | 390 kts | 148° |
| 2026-05-04 10:40 | 51.94529 | -1.54554 | 19027 ft | 371 kts | 148° |
| 2026-05-04 10:41 | 51.92407 | -1.52306 | 18776 ft | 353 kts | 148° |
| 2026-05-04 10:41 | 51.90366 | -1.50151 | 17216 ft | 348 kts | 148° |
| 2026-05-04 10:41 | 51.88353 | -1.48015 | 15820 ft | 341 kts | 148° |
| 2026-05-04 10:41 | 51.86407 | -1.45941 | 15070 ft | 323 kts | 148° |
| 2026-05-04 10:42 | 51.84600 | -1.44022 | 15044 ft | 306 kts | 148° |
| 2026-05-04 10:42 | 51.82809 | -1.42131 | 15037 ft | 307 kts | 148° |
| 2026-05-04 10:42 | 51.81021 | -1.40243 | 15036 ft | 307 kts | 148° |
| 2026-05-04 10:42 | 51.79196 | -1.38312 | 15066 ft | 326 kts | 148° |
| 2026-05-04 10:43 | 51.77274 | -1.36279 | 15060 ft | 326 kts | 148° |
| 2026-05-04 10:44 | 51.63887 | -1.22324 | 15028 ft | 329 kts | 148° |
| 2026-05-04 10:45 | 51.61959 | -1.20323 | 15033 ft | 329 kts | 148° |
| 2026-05-04 10:45 | 51.60037 | -1.18329 | 15030 ft | 329 kts | 148° |
| 2026-05-04 10:45 | 51.58108 | -1.16331 | 15029 ft | 329 kts | 148° |
| 2026-05-04 10:45 | 51.56185 | -1.14341 | 15030 ft | 329 kts | 148° |
| 2026-05-04 10:46 | 51.54263 | -1.12354 | 15027 ft | 328 kts | 148° |
| 2026-05-04 10:46 | 51.52362 | -1.10390 | 15031 ft | 329 kts | 148° |
| 2026-05-04 10:46 | 51.50413 | -1.08379 | 15029 ft | 329 kts | 148° |
| 2026-05-04 10:46 | 51.48517 | -1.06426 | 15026 ft | 328 kts | 148° |
| 2026-05-04 10:47 | 51.46597 | -1.04448 | 15022 ft | 325 kts | 148° |
| 2026-05-04 10:47 | 51.44730 | -1.02526 | 15010 ft | 312 kts | 149° |
| 2026-05-04 10:47 | 51.42921 | -1.00667 | 15009 ft | 307 kts | 149° |
| 2026-05-04 10:47 | 51.41121 | -0.98822 | 15007 ft | 306 kts | 149° |
| 2026-05-04 10:49 | 51.28608 | -0.86023 | 14861 ft | 306 kts | 149° |
| 2026-05-04 10:49 | 51.26860 | -0.84242 | 14308 ft | 290 kts | 149° |
| 2026-05-04 10:50 | 51.25174 | -0.82526 | 13915 ft | 292 kts | 149° |
| 2026-05-04 10:51 | 51.16317 | -0.65688 | 9572 ft | 297 kts | 111° |
| 2026-05-04 10:52 | 51.15668 | -0.62661 | 9030 ft | 278 kts | 111° |
| 2026-05-04 10:52 | 51.15059 | -0.59819 | 9037 ft | 282 kts | 111° |
| 2026-05-04 10:52 | 51.14414 | -0.56826 | 9025 ft | 285 kts | 111° |
| 2026-05-04 10:54 | 51.10014 | -0.36615 | 7724 ft | 268 kts | 111° |
| 2026-05-04 10:54 | 51.09400 | -0.33866 | 7474 ft | 266 kts | 111° |
| 2026-05-04 10:56 | 51.02233 | -0.30546 | 4951 ft | 244 kts | 250° |
| 2026-05-04 10:56 | 51.01676 | -0.33066 | 4430 ft | 236 kts | 250° |
| 2026-05-04 10:56 | 51.01165 | -0.35472 | 4096 ft | 223 kts | 251° |
| 2026-05-04 10:57 | 51.00687 | -0.37733 | 3844 ft | 208 kts | 251° |
| 2026-05-04 10:57 | 51.00286 | -0.39844 | 3268 ft | 196 kts | 267° |
| 2026-05-04 10:57 | 51.00687 | -0.41758 | 3048 ft | 185 kts | 306° |
| 2026-05-04 10:57 | 51.01506 | -0.43416 | 3012 ft | 194 kts | 310° |
| 2026-05-04 10:58 | 51.02369 | -0.45046 | 3014 ft | 192 kts | 310° |
| 2026-05-04 10:58 | 51.03280 | -0.46588 | 2993 ft | 191 kts | 326° |
| 2026-05-04 10:58 | 51.04499 | -0.47387 | 3001 ft | 191 kts | 345° |
| 2026-05-04 10:58 | 51.05780 | -0.47960 | 3008 ft | 190 kts | 346° |
| 2026-05-04 10:59 | 51.07080 | -0.48142 | 3012 ft | 188 kts | 12° |
| 2026-05-04 10:59 | 51.08338 | -0.47559 | 2905 ft | 187 kts | 19° |
| 2026-05-04 10:59 | 51.09589 | -0.46858 | 2456 ft | 191 kts | 21° |
| 2026-05-04 10:59 | 51.10837 | -0.46144 | 2245 ft | 190 kts | 20° |
| 2026-05-04 11:00 | 51.12025 | -0.45333 | 1999 ft | 186 kts | 41° |
| 2026-05-04 11:01 | 51.12816 | -0.32312 | 1627 ft | 178 kts | 69° |
| 2026-05-04 11:02 | 51.13208 | -0.30521 | 1469 ft | 164 kts | 74° |
| 2026-05-04 11:02 | 51.13487 | -0.28800 | 1547 ft | 161 kts | 77° |
| 2026-05-04 11:05 | 51.15263 | -0.17727 | 211 ft | 0 kts | 76° |
| 2026-05-04 11:06 | 51.15266 | -0.17707 | 214 ft | 6 kts | 76° |
| 2026-05-04 11:06 | 51.15282 | -0.17596 | 206 ft | 12 kts | 78° |
| 2026-05-04 11:06 | 51.15295 | -0.17492 | 210 ft | 0 kts | 78° |
| 2026-05-04 11:08 | 51.15409 | -0.17393 | 206 ft | 11 kts | 348° |
| 2026-05-04 11:10 | 51.15755 | -0.17065 | 212 ft | 0 kts | 347° |
| 2026-05-04 11:12 | 51.15931 | -0.17160 | 209 ft | 0 kts | 317° |